createdAt,value
2018-02-24T00:51:04.010Z,-2.5
2018-02-24T00:52:04.039Z,-2.4
2018-02-24T00:53:04.084Z,-2.5
2018-02-24T00:55:04.221Z,-2.4
2018-02-24T00:57:04.353Z,-2.5
2018-02-24T01:12:05.278Z,-2.6
2018-02-24T01:19:05.639Z,-2.8
2018-02-24T01:26:06.041Z,-2.9
2018-02-24T01:33:06.525Z,-3
2018-02-24T01:42:07.057Z,-3.1
2018-02-24T01:49:07.488Z,-3.3
2018-02-24T01:50:07.557Z,-3.1
2018-02-24T01:56:07.932Z,-3.3
2018-02-24T01:57:07.946Z,-3.1
2018-02-24T01:58:08.006Z,-3.3
2018-02-24T02:16:09.177Z,-3.4
2018-02-24T02:25:09.695Z,-3.5
2018-02-24T02:40:10.992Z,-3.5
2018-02-24T02:41:10.688Z,-3.6
2018-02-24T02:49:11.155Z,-3.8
2018-02-24T02:56:11.626Z,-3.9
2018-02-24T03:21:13.118Z,-4
2018-02-24T03:22:13.178Z,-3.9
2018-02-24T03:23:13.250Z,-4
2018-02-24T03:31:13.773Z,-4.1
2018-02-24T03:32:13.758Z,-4
2018-02-24T03:33:13.824Z,-4.1
2018-02-24T03:48:14.761Z,-4.3
2018-02-24T04:10:16.261Z,-4.4
2018-02-24T04:16:16.558Z,-4.5
2018-02-24T04:20:16.810Z,-4.6
2018-02-24T04:21:16.861Z,-4.5
2018-02-24T04:22:16.924Z,-4.6
2018-02-24T04:26:17.210Z,-4.8
2018-02-24T04:27:17.244Z,-4.6
2018-02-24T04:28:17.289Z,-4.8
2018-02-24T04:42:18.157Z,-4.6
2018-02-24T05:03:19.532Z,-4.5
2018-02-24T05:08:19.781Z,-4.4
2018-02-24T05:11:19.984Z,-4.3
2018-02-24T05:13:20.054Z,-4.1
2018-02-24T05:17:20.337Z,-4
2018-02-24T05:21:20.596Z,-3.9
2018-02-24T05:24:20.743Z,-3.8
2018-02-24T05:29:21.038Z,-3.6
2018-02-24T05:34:21.389Z,-3.5
2018-02-24T05:37:21.595Z,-3.4
2018-02-24T05:42:21.927Z,-3.3
2018-02-24T05:48:22.238Z,-3.1
2018-02-24T05:53:22.565Z,-3
2018-02-24T06:02:23.103Z,-2.9
2018-02-24T06:05:23.287Z,-2.8
2018-02-24T06:10:23.612Z,-2.6
2018-02-24T06:13:23.741Z,-2.5
2018-02-24T06:17:23.973Z,-2.4
2018-02-24T06:20:24.214Z,-2.3
2018-02-24T06:26:24.582Z,-2.1
2018-02-24T06:32:25.004Z,-2
2018-02-24T06:37:25.329Z,-1.9
2018-02-24T06:45:25.702Z,-1.8
2018-02-24T06:50:26.011Z,-1.6
2018-02-24T06:56:26.514Z,-1.5
2018-02-24T07:02:26.828Z,-1.4
2018-02-24T07:08:27.284Z,-1.3
2018-02-24T07:15:27.712Z,-1.1
2018-02-24T07:21:28.087Z,-3
2018-02-24T07:25:28.252Z,-2.9
2018-02-24T07:31:28.617Z,-2.7
2018-02-24T07:35:28.858Z,-2.6
2018-02-24T07:38:29.043Z,-2.5
2018-02-24T07:43:29.377Z,-2.4
2018-02-24T07:48:29.657Z,-2.2
2018-02-24T07:52:29.907Z,-2.1
2018-02-24T07:59:30.392Z,-2
2018-02-24T08:16:31.471Z,-1.9
2018-02-24T08:20:31.694Z,-1.8
2018-02-24T08:24:31.945Z,-1.6
2018-02-24T08:27:32.192Z,-1.5
2018-02-24T08:30:32.347Z,-1.4
2018-02-24T08:34:32.608Z,-1.3
2018-02-24T08:38:32.785Z,-1.1
2018-02-24T08:44:33.158Z,-1
2018-02-24T08:46:33.288Z,-0.9
2018-02-24T08:50:33.581Z,-0.8
2018-02-24T08:52:33.699Z,-0.6
2018-02-24T08:53:33.709Z,-0.5
2018-02-24T08:54:33.820Z,-0.4
2018-02-24T08:55:33.865Z,-0.3
2018-02-24T08:56:33.920Z,-0.1
2018-02-24T08:58:34.069Z,0
2018-02-24T08:59:34.147Z,0.1
2018-02-24T09:01:34.204Z,0.3
2018-02-24T09:05:34.518Z,0.4
2018-02-24T09:08:34.637Z,0.5
2018-02-24T09:10:34.781Z,0.6
2018-02-24T09:11:34.837Z,0.8
2018-02-24T09:15:35.066Z,0.9
2018-02-24T09:16:35.144Z,0.8
2018-02-24T09:26:35.761Z,0.9
2018-02-24T09:27:35.820Z,1
2018-02-24T09:28:35.853Z,1.1
2018-02-24T09:29:35.921Z,1.3
2018-02-24T09:30:35.982Z,1.4
2018-02-24T09:31:36.060Z,1.6
2018-02-24T09:32:36.106Z,1.8
2018-02-24T09:33:36.163Z,1.9
2018-02-24T09:34:36.274Z,2
2018-02-24T09:35:36.295Z,2.1
2018-02-24T09:36:36.411Z,2.2
2018-02-24T09:37:36.465Z,2.4
2018-02-24T09:38:36.513Z,2.6
2018-02-24T09:39:36.589Z,2.7
2018-02-24T09:40:36.638Z,2.9
2018-02-24T09:41:36.713Z,3
2018-02-24T09:42:36.791Z,3.2
2018-02-24T09:43:36.832Z,3.4
2018-02-24T09:44:36.902Z,3.5
2018-02-24T09:45:36.967Z,3.7
2018-02-24T09:47:37.083Z,3.9
2018-02-24T09:48:37.140Z,4
2018-02-24T09:49:37.152Z,4.1
2018-02-24T09:52:37.378Z,4.4
2018-02-24T09:53:37.445Z,4.7
2018-02-24T09:54:37.522Z,5
2018-02-24T09:55:37.538Z,5.1
2018-02-24T09:56:37.643Z,5.5
2018-02-24T09:57:37.665Z,6.4
2018-02-24T09:58:37.707Z,7.5
2018-02-24T10:00:37.818Z,7.7
2018-02-24T10:01:37.941Z,8
2018-02-24T10:02:37.960Z,9.3
2018-02-24T10:03:38.012Z,11.4
2018-02-24T10:04:38.110Z,13.3
2018-02-24T10:05:38.137Z,14.6
2018-02-24T10:06:38.206Z,15.9
2018-02-24T10:07:38.310Z,16.9
2018-02-24T10:08:38.347Z,16.8
2018-02-24T10:09:38.435Z,16.3
2018-02-24T10:10:38.499Z,14.9
2018-02-24T10:11:38.575Z,13.6
2018-02-24T10:12:38.578Z,12.9
2018-02-24T10:13:38.653Z,12.1
2018-02-24T10:14:38.699Z,11.4
2018-02-24T10:15:38.755Z,10.8
2018-02-24T10:16:38.808Z,10.3
2018-02-24T10:17:38.912Z,9.8
2018-02-24T10:18:38.947Z,9.3
2018-02-24T10:19:38.993Z,8.9
2018-02-24T10:21:39.118Z,9.6
2018-02-24T10:22:39.192Z,10
2018-02-24T10:23:39.296Z,9.4
2018-02-24T10:24:39.302Z,9.1
2018-02-24T10:25:39.668Z,9
2018-02-24T10:26:39.478Z,9.8
2018-02-24T10:27:39.542Z,10.4
2018-02-24T10:28:39.581Z,11.4
2018-02-24T10:29:39.641Z,12.2
2018-02-24T10:30:39.693Z,13.3
2018-02-24T10:31:39.800Z,14.4
2018-02-24T10:32:39.816Z,15.3
2018-02-24T10:33:39.905Z,13.9
2018-02-24T10:34:39.944Z,13.1
2018-02-24T10:35:40.009Z,12.2
2018-02-24T10:36:40.086Z,12.6
2018-02-24T10:37:40.144Z,11.8
2018-02-24T10:38:40.173Z,12.1
2018-02-24T10:39:40.334Z,14.4
2018-02-24T10:40:40.363Z,15.3
2018-02-24T10:41:40.366Z,14.4
2018-02-24T10:42:40.413Z,15.9
2018-02-24T10:43:40.480Z,16.1
2018-02-24T10:44:40.528Z,15.9
2018-02-24T10:45:40.648Z,16.9
2018-02-24T10:46:40.672Z,19
2018-02-24T10:47:40.722Z,20.6
2018-02-24T10:48:40.781Z,21.9
2018-02-24T10:49:40.845Z,23.1
2018-02-24T10:50:41.160Z,24.1
2018-02-24T10:51:40.984Z,25
2018-02-24T10:52:41.074Z,25.8
2018-02-24T10:53:41.206Z,26.5
2018-02-24T10:54:41.202Z,27.1
2018-02-24T10:55:41.272Z,27.8
2018-02-24T10:56:41.294Z,28.3
2018-02-24T10:57:41.391Z,28.7
2018-02-24T10:58:41.432Z,29.3
2018-02-24T10:59:41.501Z,29.8
2018-02-24T11:00:41.548Z,30.1
2018-02-24T11:01:41.654Z,30.5
2018-02-24T11:02:41.692Z,30.9
2018-02-24T11:03:41.712Z,31.1
2018-02-24T11:04:41.760Z,31.2
2018-02-24T11:05:41.862Z,31.4
2018-02-24T11:06:41.946Z,31.5
2018-02-24T11:07:42.193Z,31.6
2018-02-24T11:08:42.002Z,31.8
2018-02-24T11:09:42.116Z,31.9
2018-02-24T11:10:42.166Z,32.1
2018-02-24T11:11:42.257Z,32.2
2018-02-24T11:16:42.523Z,32.4
2018-02-24T11:17:42.567Z,32.5
2018-02-24T11:20:42.747Z,32.4
2018-02-24T11:23:42.974Z,32.5
2018-02-24T11:24:43.022Z,32.6
2018-02-24T11:25:43.128Z,32.7
2018-02-24T11:27:43.285Z,32.4
2018-02-24T11:28:43.249Z,32.1
2018-02-24T11:29:43.357Z,31.5
2018-02-24T11:30:43.398Z,30.8
2018-02-24T11:31:43.467Z,30
2018-02-24T11:32:43.581Z,29.4
2018-02-24T11:33:43.546Z,29
2018-02-24T11:35:43.664Z,29.4
2018-02-24T11:36:43.731Z,29.9
2018-02-24T11:37:43.848Z,30.1
2018-02-24T11:38:43.885Z,30.5
2018-02-24T11:39:43.998Z,29.6
2018-02-24T11:40:44.102Z,30
2018-02-24T11:41:44.142Z,30.4
2018-02-24T11:43:44.264Z,30.6
2018-02-24T11:44:44.317Z,30.8
2018-02-24T11:45:44.442Z,31
2018-02-24T11:46:44.458Z,31.1
2018-02-24T11:47:44.515Z,31.2
2018-02-24T11:48:44.624Z,31.4
2018-02-24T11:50:44.690Z,31.5
2018-02-24T11:51:44.736Z,31.4
2018-02-24T11:55:44.999Z,31.5
2018-02-24T11:57:45.118Z,31.6
2018-02-24T11:58:45.210Z,31.5
2018-02-24T12:01:45.415Z,31.4
2018-02-24T12:05:45.656Z,31.2
2018-02-24T12:06:45.703Z,31.4
2018-02-24T12:10:45.951Z,31.5
2018-02-24T12:11:46.020Z,31.6
2018-02-24T12:12:46.057Z,31.8
2018-02-24T12:13:46.184Z,31.9
2018-02-24T12:14:46.210Z,32
2018-02-24T12:15:46.287Z,32.2
2018-02-24T12:16:46.336Z,32.4
2018-02-24T12:19:46.549Z,31.8
2018-02-24T12:20:46.586Z,30.5
2018-02-24T12:21:46.619Z,29.5
2018-02-24T12:22:46.695Z,28.7
2018-02-24T12:23:46.708Z,27.6
2018-02-24T12:24:46.784Z,26.5
2018-02-24T12:25:46.905Z,25.6
2018-02-24T12:26:46.900Z,24.6
2018-02-24T12:27:47.015Z,24.5
2018-02-24T12:29:47.086Z,25.1
2018-02-24T12:30:47.155Z,25.3
2018-02-24T12:31:47.212Z,25.6
2018-02-24T12:32:47.282Z,24.4
2018-02-24T12:33:47.408Z,22.1
2018-02-24T12:34:47.477Z,20.8
2018-02-24T12:35:47.466Z,21
2018-02-24T12:36:47.588Z,22.6
2018-02-24T12:37:47.622Z,24
2018-02-24T12:38:47.664Z,24.6
2018-02-24T12:39:47.706Z,25.3
2018-02-24T12:40:47.765Z,26.1
2018-02-24T12:41:47.855Z,26.8
2018-02-24T12:42:47.925Z,27.1
2018-02-24T12:43:47.961Z,27.5
2018-02-24T12:44:48.016Z,27.8
2018-02-24T12:45:48.077Z,28.4
2018-02-24T12:46:48.162Z,26.2
2018-02-24T12:47:48.210Z,25.9
2018-02-24T12:48:48.323Z,24.1
2018-02-24T12:49:48.356Z,22.5
2018-02-24T12:50:48.436Z,21
2018-02-24T12:51:48.458Z,20
2018-02-24T12:52:48.507Z,18.6
2018-02-24T12:53:48.612Z,17.4
2018-02-24T12:54:48.693Z,16.1
2018-02-24T12:55:48.697Z,15.1
2018-02-24T12:56:48.790Z,14.4
2018-02-24T12:57:48.830Z,13.8
2018-02-24T12:58:48.874Z,13
2018-02-24T12:59:48.968Z,12.4
2018-02-24T13:00:49.052Z,12.6
2018-02-24T13:01:49.076Z,12
2018-02-24T13:02:49.192Z,11.3
2018-02-24T13:03:49.225Z,10.8
2018-02-24T13:04:49.302Z,11.5
2018-02-24T13:05:49.346Z,13.5
2018-02-24T13:06:49.403Z,15
2018-02-24T13:07:49.530Z,16.3
2018-02-24T13:08:49.589Z,17.2
2018-02-24T13:09:49.607Z,18.1
2018-02-24T13:10:49.666Z,18.6
2018-02-24T13:11:49.725Z,18.1
2018-02-24T13:12:49.769Z,17.8
2018-02-24T13:13:49.807Z,17
2018-02-24T13:14:49.868Z,16.9
2018-02-24T13:15:49.918Z,16.6
2018-02-24T13:16:50.011Z,16.1
2018-02-24T13:17:50.057Z,15.5
2018-02-24T13:18:50.105Z,15
2018-02-24T13:19:50.218Z,14.9
2018-02-24T13:20:50.256Z,15
2018-02-24T13:21:50.294Z,15.4
2018-02-24T13:22:50.352Z,15.9
2018-02-24T13:23:50.454Z,16.5
2018-02-24T13:24:50.513Z,17.1
2018-02-24T13:25:50.547Z,17.6
2018-02-24T13:26:50.609Z,18.3
2018-02-24T13:27:50.692Z,18.6
2018-02-24T13:28:50.762Z,18.8
2018-02-24T13:29:50.790Z,18.9
2018-02-24T13:30:50.843Z,19.1
2018-02-24T13:31:50.958Z,19.5
2018-02-24T13:33:51.066Z,19.9
2018-02-24T13:34:51.154Z,20
2018-02-24T13:35:51.149Z,20.1
2018-02-24T13:36:51.261Z,20.5
2018-02-24T13:37:51.326Z,20.6
2018-02-24T13:38:51.372Z,21
2018-02-24T13:39:51.410Z,21.2
2018-02-24T13:40:51.530Z,21.4
2018-02-24T13:41:51.556Z,21.6
2018-02-24T13:42:51.620Z,22
2018-02-24T13:43:51.694Z,22.5
2018-02-24T13:44:51.765Z,23.6
2018-02-24T13:45:51.826Z,24.4
2018-02-24T13:46:51.882Z,24.7
2018-02-24T13:47:51.936Z,25
2018-02-24T13:48:52.007Z,24
2018-02-24T13:49:52.074Z,21.6
2018-02-24T13:50:52.129Z,19.6
2018-02-24T13:51:52.166Z,18
2018-02-24T13:52:52.245Z,16.6
2018-02-24T13:53:52.284Z,15.4
2018-02-24T13:54:52.336Z,14.3
2018-02-24T13:55:52.408Z,13.4
2018-02-24T13:56:52.492Z,12.4
2018-02-24T13:57:52.530Z,11.8
2018-02-24T13:58:52.593Z,12.6
2018-02-24T13:59:52.632Z,13
2018-02-24T14:00:52.703Z,13.8
2018-02-24T14:01:52.825Z,15.3
2018-02-24T14:02:52.895Z,16.8
2018-02-24T14:03:52.874Z,18.1
2018-02-24T14:04:52.976Z,19.3
2018-02-24T14:05:53.036Z,20.3
2018-02-24T14:06:53.076Z,21
2018-02-24T14:07:53.122Z,21.6
2018-02-24T14:08:53.175Z,22.1
2018-02-24T14:09:53.243Z,22.6
2018-02-24T14:10:53.345Z,22.9
2018-02-24T14:11:53.482Z,23.3
2018-02-24T14:12:53.488Z,23.6
2018-02-24T14:13:53.500Z,24
2018-02-24T14:14:53.561Z,24.1
2018-02-24T14:15:53.646Z,23.7
2018-02-24T14:16:53.740Z,23.6
2018-02-24T14:17:53.732Z,23.5
2018-02-24T14:18:53.803Z,23
2018-02-24T14:19:53.857Z,22.9
2018-02-24T14:20:53.922Z,23.5
2018-02-24T14:21:53.989Z,23.7
2018-02-24T14:22:54.099Z,24
2018-02-24T14:23:54.099Z,23.4
2018-02-24T14:24:54.176Z,21.2
2018-02-24T14:25:54.262Z,22.2
2018-02-24T14:26:54.315Z,23.1
2018-02-24T14:28:54.456Z,23.6
2018-02-24T14:29:54.522Z,22.6
2018-02-24T14:30:54.666Z,21.1
2018-02-24T14:31:54.664Z,19.3
2018-02-24T14:32:54.708Z,17.8
2018-02-24T14:33:54.775Z,16.5
2018-02-24T14:34:54.837Z,15.4
2018-02-24T14:35:54.906Z,14.4
2018-02-24T14:36:54.937Z,13.5
2018-02-24T14:37:55.011Z,12.6
2018-02-24T14:38:55.029Z,11.8
2018-02-24T14:39:55.153Z,11
2018-02-24T14:40:55.225Z,10.3
2018-02-24T14:41:55.284Z,9.6
2018-02-24T14:42:55.330Z,9
2018-02-24T14:43:55.399Z,8.5
2018-02-24T14:44:55.464Z,8
2018-02-24T14:45:55.503Z,7.5
2018-02-24T14:46:55.534Z,8
2018-02-24T14:48:55.643Z,8.3
2018-02-24T14:49:55.728Z,7.5
2018-02-24T14:50:55.766Z,7
2018-02-24T14:51:55.842Z,6.5
2018-02-24T14:52:55.928Z,6.2
2018-02-24T14:53:55.944Z,8
2018-02-24T14:54:56.015Z,10.1
2018-02-24T14:55:56.087Z,11.6
2018-02-24T14:56:56.199Z,12.9
2018-02-24T14:57:56.281Z,13.9
2018-02-24T14:58:56.271Z,14.6
2018-02-24T14:59:56.372Z,15.4
2018-02-24T15:00:56.443Z,16
2018-02-24T15:01:56.513Z,16.4
2018-02-24T15:02:56.607Z,16.6
2018-02-24T15:03:56.594Z,17
2018-02-24T15:04:56.666Z,17.1
2018-02-24T15:05:56.694Z,17
2018-02-24T15:07:56.837Z,17.2
2018-02-24T15:08:56.869Z,17.5
2018-02-24T15:09:56.957Z,17.8
2018-02-24T15:10:57.002Z,17.9
2018-02-24T15:11:57.063Z,18
2018-02-24T15:12:57.142Z,18.3
2018-02-24T15:13:57.179Z,18.4
2018-02-24T15:14:57.253Z,18.5
2018-02-24T15:16:57.388Z,18.6
2018-02-24T15:18:57.565Z,18.8
2018-02-24T15:30:58.266Z,18.6
2018-02-24T15:31:58.329Z,18.5
2018-02-24T15:33:58.461Z,18.3
2018-02-24T15:34:58.477Z,18
2018-02-24T15:36:58.631Z,17.9
2018-02-24T15:37:58.665Z,17.8
2018-02-24T15:38:58.752Z,17.5
2018-02-24T15:39:58.797Z,17.4
2018-02-24T15:40:58.845Z,17.1
2018-02-24T15:41:58.898Z,16.9
2018-02-24T15:42:58.971Z,16.3
2018-02-24T15:43:59.019Z,14.5
2018-02-24T15:44:59.137Z,13.4
2018-02-24T15:45:59.182Z,12.6
2018-02-24T15:46:59.227Z,11.5
2018-02-24T15:47:59.292Z,10.4
2018-02-24T15:48:59.390Z,9.5
2018-02-24T15:49:59.417Z,8.8
2018-02-24T15:51:59.555Z,9.1
2018-02-24T15:52:59.571Z,8.4
2018-02-24T15:53:59.683Z,7.5
2018-02-24T15:54:59.713Z,6.9
2018-02-24T15:55:59.764Z,6.4
2018-02-24T15:56:59.823Z,5.9
2018-02-24T15:57:59.885Z,6
2018-02-24T15:58:59.947Z,6.2
2018-02-24T16:00:00.071Z,6
2018-02-24T16:01:00.100Z,5.9
2018-02-24T16:02:00.198Z,6.2
2018-02-24T16:03:00.837Z,6.5
2018-02-24T16:04:00.896Z,6.4
2018-02-24T16:05:00.703Z,6.5
2018-02-24T16:06:00.890Z,6.6
2018-02-24T16:07:00.909Z,6.9
2018-02-24T16:08:00.982Z,7
2018-02-24T16:09:00.648Z,6.7
2018-02-24T16:10:00.975Z,6.4
2018-02-24T16:11:00.867Z,6
2018-02-24T16:12:01.159Z,5.9
2018-02-24T16:13:01.080Z,5.7
2018-02-24T16:14:01.492Z,5.9
2018-02-24T16:17:01.689Z,5.7
2018-02-24T16:19:01.317Z,5.6
2018-02-24T16:20:01.266Z,5.5
2018-02-24T16:21:01.307Z,5
2018-02-24T16:22:01.370Z,4.4
2018-02-24T16:23:01.476Z,3.9
2018-02-24T16:24:01.490Z,3.5
2018-02-24T16:25:01.560Z,3.1
2018-02-24T16:26:01.634Z,2.9
2018-02-24T16:27:01.752Z,2.6
2018-02-24T16:28:01.765Z,2.4
2018-02-24T16:29:01.816Z,2.1
2018-02-24T16:30:01.903Z,2
2018-02-24T16:31:01.962Z,1.8
2018-02-24T16:32:01.974Z,1.5
2018-02-24T16:33:02.041Z,1.4
2018-02-24T16:34:02.114Z,1.3
2018-02-24T16:35:02.177Z,1.1
2018-02-24T16:37:02.343Z,1
2018-02-24T16:38:02.961Z,0.9
2018-02-24T16:39:02.457Z,0.8
2018-02-24T16:40:02.496Z,0.6
2018-02-24T16:42:02.607Z,0.5
2018-02-24T16:43:02.691Z,0.4
2018-02-24T16:45:02.790Z,0.3
2018-02-24T16:47:02.892Z,0.1
2018-02-24T16:49:03.027Z,0
2018-02-24T16:51:03.163Z,-0.1
2018-02-24T16:54:03.371Z,-0.3
2018-02-24T16:57:03.572Z,-0.4
2018-02-24T17:01:03.795Z,-0.5
2018-02-24T17:05:04.056Z,-0.6
2018-02-24T17:08:04.268Z,-0.8
2018-02-24T17:13:04.526Z,-0.9
2018-02-24T17:17:04.752Z,-1
2018-02-24T17:18:04.801Z,-0.9
2018-02-24T17:19:04.859Z,-1
2018-02-24T17:27:05.459Z,-1.1
2018-02-24T17:31:05.687Z,-1.3
2018-02-24T17:38:06.054Z,-1.4
2018-02-24T17:45:06.515Z,-1.5
2018-02-24T17:56:07.169Z,-1.6
2018-02-24T18:06:07.748Z,-1.8
2018-02-24T18:13:08.210Z,-1.9
2018-02-24T18:26:08.967Z,-2
2018-02-24T18:38:09.827Z,-2.1
2018-02-24T18:43:14.240Z,-2.1
2018-02-24T18:49:10.393Z,-2.2
2018-02-24T18:50:10.471Z,-2.1
2018-02-24T18:51:10.513Z,-2.2
2018-02-24T18:58:11.009Z,-2.4
2018-02-24T19:10:11.869Z,-2.5
2018-02-24T19:17:12.136Z,-2.6
2018-02-24T19:25:12.686Z,-2.6
2018-02-24T19:33:13.153Z,-2.6
2018-02-24T19:45:13.826Z,-2.7
2018-02-24T19:46:13.896Z,-2.6
2018-02-24T19:47:13.949Z,-2.7
2018-02-24T19:48:14.081Z,-2.6
2018-02-24T19:49:14.092Z,-2.7
2018-02-24T20:01:14.809Z,-2.9
2018-02-24T20:02:14.856Z,-2.7
2018-02-24T20:03:14.920Z,-2.9
2018-02-24T20:20:16.039Z,-3
2018-02-24T20:31:18.255Z,-3
2018-02-24T20:33:16.779Z,-1.1
2018-02-24T20:41:18.133Z,-1.1
2018-02-24T20:47:17.705Z,-1.3
2018-02-24T20:48:17.727Z,-1.1
2018-02-24T20:50:17.835Z,-1.3
2018-02-24T20:53:18.088Z,-1.1
2018-02-24T20:54:18.096Z,-1.3
2018-02-24T21:06:18.783Z,-1.4
2018-02-24T21:15:19.379Z,-1.5
2018-02-24T21:16:19.433Z,-1.4
2018-02-24T21:17:19.492Z,-1.5
2018-02-24T21:26:20.008Z,-1.6
2018-02-24T21:32:20.414Z,-1.8
2018-02-24T21:40:20.976Z,-1.9
2018-02-24T21:51:21.576Z,-2
2018-02-24T21:58:21.988Z,-2.1
2018-02-24T22:03:22.347Z,-2.3
2018-02-24T22:09:22.686Z,-2.4
2018-02-24T22:14:22.956Z,-2.5
2018-02-24T22:25:24.462Z,-2.6
2018-02-24T22:44:24.919Z,-2.8
2018-02-24T22:51:25.324Z,-2.9
2018-02-24T22:52:25.352Z,-2.8
2018-02-24T22:53:25.437Z,-2.9
2018-02-24T23:06:26.202Z,-3
2018-02-24T23:17:26.872Z,-3.1
2018-02-24T23:26:27.747Z,-3.1
2018-02-24T23:37:28.605Z,-3.3
2018-02-24T23:56:29.267Z,-3.4
